sensor_id;sensor_type;location;lat;lon;timestamp;temperature;humidity
15239;DHT22;7722;53.274;9.500;2023-02-03T00:00:52;7.00;99.90
15239;DHT22;7722;53.274;9.500;2023-02-03T00:03:19;7.00;99.90
15239;DHT22;7722;53.274;9.500;2023-02-03T00:05:46;7.10;99.90
15239;DHT22;7722;53.274;9.500;2023-02-03T00:08:14;7.10;99.90
15239;DHT22;7722;53.274;9.500;2023-02-03T00:10:41;7.20;99.90
15239;DHT22;7722;53.274;9.500;2023-02-03T00:13:08;7.20;99.90
15239;DHT22;7722;53.274;9.500;2023-02-03T00:15:35;7.10;99.90
15239;DHT22;7722;53.274;9.500;2023-02-03T00:18:04;7.20;99.90
15239;DHT22;7722;53.274;9.500;2023-02-03T00:20:31;7.20;99.90
15239;DHT22;7722;53.274;9.500;2023-02-03T00:23:03;7.20;99.90
15239;DHT22;7722;53.274;9.500;2023-02-03T00:25:30;7.20;99.90
15239;DHT22;7722;53.274;9.500;2023-02-03T00:27:57;7.20;99.90
15239;DHT22;7722;53.274;9.500;2023-02-03T00:30:25;7.20;99.90
15239;DHT22;7722;53.274;9.500;2023-02-03T00:32:52;7.30;99.90
15239;DHT22;7722;53.274;9.500;2023-02-03T00:35:21;7.30;99.90
15239;DHT22;7722;53.274;9.500;2023-02-03T00:37:51;7.30;99.90
15239;DHT22;7722;53.274;9.500;2023-02-03T00:40:19;7.30;99.90
15239;DHT22;7722;53.274;9.500;2023-02-03T00:42:46;7.30;99.90
15239;DHT22;7722;53.274;9.500;2023-02-03T00:45:13;7.30;99.90
15239;DHT22;7722;53.274;9.500;2023-02-03T00:47:40;7.30;99.90
15239;DHT22;7722;53.274;9.500;2023-02-03T00:50:08;7.30;99.90
15239;DHT22;7722;53.274;9.500;2023-02-03T00:52:37;7.20;99.90
15239;DHT22;7722;53.274;9.500;2023-02-03T00:55:05;7.20;99.90
15239;DHT22;7722;53.274;9.500;2023-02-03T00:57:33;7.40;99.90
15239;DHT22;7722;53.274;9.500;2023-02-03T01:00:00;7.20;99.90
15239;DHT22;7722;53.274;9.500;2023-02-03T01:02:27;7.20;99.90
15239;DHT22;7722;53.274;9.500;2023-02-03T01:04:54;7.30;99.90
15239;DHT22;7722;53.274;9.500;2023-02-03T01:07:21;7.40;99.90
15239;DHT22;7722;53.274;9.500;2023-02-03T01:09:49;7.40;99.90
15239;DHT22;7722;53.274;9.500;2023-02-03T01:12:16;7.30;99.90
15239;DHT22;7722;53.274;9.500;2023-02-03T01:14:43;7.30;99.90
15239;DHT22;7722;53.274;9.500;2023-02-03T01:17:10;7.30;99.90
15239;DHT22;7722;53.274;9.500;2023-02-03T01:19:37;7.30;99.90
15239;DHT22;7722;53.274;9.500;2023-02-03T01:22:04;7.40;99.90
15239;DHT22;7722;53.274;9.500;2023-02-03T01:24:32;7.30;99.90
15239;DHT22;7722;53.274;9.500;2023-02-03T01:27:00;7.30;99.90
15239;DHT22;7722;53.274;9.500;2023-02-03T01:29:27;7.30;99.90
15239;DHT22;7722;53.274;9.500;2023-02-03T01:31:54;7.40;99.90
15239;DHT22;7722;53.274;9.500;2023-02-03T01:34:22;7.30;99.90
15239;DHT22;7722;53.274;9.500;2023-02-03T01:36:49;7.40;99.90
15239;DHT22;7722;53.274;9.500;2023-02-03T01:39:17;7.30;99.90
15239;DHT22;7722;53.274;9.500;2023-02-03T01:41:44;7.40;99.90
15239;DHT22;7722;53.274;9.500;2023-02-03T01:47:28;7.40;99.90
15239;DHT22;7722;53.274;9.500;2023-02-03T01:50:05;7.40;99.90
15239;DHT22;7722;53.274;9.500;2023-02-03T01:52:35;7.40;99.90
15239;DHT22;7722;53.274;9.500;2023-02-03T01:55:04;7.40;99.90
15239;DHT22;7722;53.274;9.500;2023-02-03T01:57:35;7.40;99.90
15239;DHT22;7722;53.274;9.500;2023-02-03T02:00:05;7.40;99.90
15239;DHT22;7722;53.274;9.500;2023-02-03T02:02:34;7.40;99.90
15239;DHT22;7722;53.274;9.500;2023-02-03T02:05:05;7.40;99.90
15239;DHT22;7722;53.274;9.500;2023-02-03T02:07:35;7.40;99.90
15239;DHT22;7722;53.274;9.500;2023-02-03T02:10:04;7.40;99.90
15239;DHT22;7722;53.274;9.500;2023-02-03T02:12:31;7.40;99.90
15239;DHT22;7722;53.274;9.500;2023-02-03T02:14:59;7.40;99.90
15239;DHT22;7722;53.274;9.500;2023-02-03T02:17:49;7.40;99.90
15239;DHT22;7722;53.274;9.500;2023-02-03T02:26:40;7.50;99.90
15239;DHT22;7722;53.274;9.500;2023-02-03T02:29:22;7.40;99.90
15239;DHT22;7722;53.274;9.500;2023-02-03T02:32:02;7.50;99.90
15239;DHT22;7722;53.274;9.500;2023-02-03T02:34:46;7.40;99.90
15239;DHT22;7722;53.274;9.500;2023-02-03T02:37:21;7.40;99.90
15239;DHT22;7722;53.274;9.500;2023-02-03T02:39:56;7.40;99.90
15239;DHT22;7722;53.274;9.500;2023-02-03T02:42:31;7.40;99.90
15239;DHT22;7722;53.274;9.500;2023-02-03T02:45:05;7.40;99.90
15239;DHT22;7722;53.274;9.500;2023-02-03T02:47:37;7.40;99.90
15239;DHT22;7722;53.274;9.500;2023-02-03T02:50:07;7.40;99.90
15239;DHT22;7722;53.274;9.500;2023-02-03T02:52:40;7.40;99.90
15239;DHT22;7722;53.274;9.500;2023-02-03T02:55:12;7.50;99.90
15239;DHT22;7722;53.274;9.500;2023-02-03T02:57:41;7.40;99.90
15239;DHT22;7722;53.274;9.500;2023-02-03T03:00:09;7.40;99.90
15239;DHT22;7722;53.274;9.500;2023-02-03T03:02:39;7.40;99.90
15239;DHT22;7722;53.274;9.500;2023-02-03T03:05:08;7.40;99.90
15239;DHT22;7722;53.274;9.500;2023-02-03T03:07:39;7.40;99.90
15239;DHT22;7722;53.274;9.500;2023-02-03T03:10:10;7.40;99.90
15239;DHT22;7722;53.274;9.500;2023-02-03T03:12:43;7.40;99.90
15239;DHT22;7722;53.274;9.500;2023-02-03T03:15:21;7.40;99.90
15239;DHT22;7722;53.274;9.500;2023-02-03T03:17:53;7.50;99.90
15239;DHT22;7722;53.274;9.500;2023-02-03T03:20:25;7.50;99.90
15239;DHT22;7722;53.274;9.500;2023-02-03T03:22:58;7.50;99.90
15239;DHT22;7722;53.274;9.500;2023-02-03T03:25:29;7.40;99.90
15239;DHT22;7722;53.274;9.500;2023-02-03T03:28:00;7.40;99.90
15239;DHT22;7722;53.274;9.500;2023-02-03T03:30:31;7.40;99.90
15239;DHT22;7722;53.274;9.500;2023-02-03T03:33:01;7.50;99.90
15239;DHT22;7722;53.274;9.500;2023-02-03T03:35:34;7.50;99.90
15239;DHT22;7722;53.274;9.500;2023-02-03T03:38:08;7.50;99.90
15239;DHT22;7722;53.274;9.500;2023-02-03T03:40:39;7.50;99.90
15239;DHT22;7722;53.274;9.500;2023-02-03T03:43:13;7.50;99.90
15239;DHT22;7722;53.274;9.500;2023-02-03T03:45:44;7.50;99.90
15239;DHT22;7722;53.274;9.500;2023-02-03T03:48:18;7.50;99.90
15239;DHT22;7722;53.274;9.500;2023-02-03T03:50:52;7.50;99.90
15239;DHT22;7722;53.274;9.500;2023-02-03T03:53:22;7.50;99.90
15239;DHT22;7722;53.274;9.500;2023-02-03T03:55:52;7.50;99.90
15239;DHT22;7722;53.274;9.500;2023-02-03T03:58:23;7.50;99.90
15239;DHT22;7722;53.274;9.500;2023-02-03T04:00:53;7.60;99.90
15239;DHT22;7722;53.274;9.500;2023-02-03T04:03:24;7.60;99.90
15239;DHT22;7722;53.274;9.500;2023-02-03T04:05:54;7.60;99.90
15239;DHT22;7722;53.274;9.500;2023-02-03T04:08:21;7.60;99.90
15239;DHT22;7722;53.274;9.500;2023-02-03T04:10:48;7.60;99.90
15239;DHT22;7722;53.274;9.500;2023-02-03T04:13:15;7.60;99.90
15239;DHT22;7722;53.274;9.500;2023-02-03T04:15:44;7.60;99.90
15239;DHT22;7722;53.274;9.500;2023-02-03T04:18:13;7.50;99.90
15239;DHT22;7722;53.274;9.500;2023-02-03T04:20:41;7.50;99.90
15239;DHT22;7722;53.274;9.500;2023-02-03T04:23:09;7.60;99.90
15239;DHT22;7722;53.274;9.500;2023-02-03T04:25:36;7.50;99.90
15239;DHT22;7722;53.274;9.500;2023-02-03T04:28:03;7.50;99.90
15239;DHT22;7722;53.274;9.500;2023-02-03T04:30:31;7.50;99.90
15239;DHT22;7722;53.274;9.500;2023-02-03T04:32:58;7.50;99.90
15239;DHT22;7722;53.274;9.500;2023-02-03T04:35:26;7.50;99.90
15239;DHT22;7722;53.274;9.500;2023-02-03T04:37:54;7.40;99.90
15239;DHT22;7722;53.274;9.500;2023-02-03T04:40:21;7.40;99.90
15239;DHT22;7722;53.274;9.500;2023-02-03T04:42:48;7.40;99.90
15239;DHT22;7722;53.274;9.500;2023-02-03T04:45:16;7.50;99.90
15239;DHT22;7722;53.274;9.500;2023-02-03T04:47:43;7.40;99.90
15239;DHT22;7722;53.274;9.500;2023-02-03T04:50:10;7.40;99.90
15239;DHT22;7722;53.274;9.500;2023-02-03T04:52:37;7.40;99.90
15239;DHT22;7722;53.274;9.500;2023-02-03T04:55:06;7.30;99.90
15239;DHT22;7722;53.274;9.500;2023-02-03T04:57:33;7.30;99.90
15239;DHT22;7722;53.274;9.500;2023-02-03T05:00:00;7.30;99.90
15239;DHT22;7722;53.274;9.500;2023-02-03T05:02:27;7.30;99.90
15239;DHT22;7722;53.274;9.500;2023-02-03T05:04:54;7.30;99.90
15239;DHT22;7722;53.274;9.500;2023-02-03T05:07:22;7.30;99.90
15239;DHT22;7722;53.274;9.500;2023-02-03T05:09:49;7.30;99.90
15239;DHT22;7722;53.274;9.500;2023-02-03T05:12:17;7.30;99.90
15239;DHT22;7722;53.274;9.500;2023-02-03T05:14:44;7.30;99.90
15239;DHT22;7722;53.274;9.500;2023-02-03T05:17:11;7.20;99.90
15239;DHT22;7722;53.274;9.500;2023-02-03T05:19:38;7.20;99.90
15239;DHT22;7722;53.274;9.500;2023-02-03T05:22:05;7.30;99.90
15239;DHT22;7722;53.274;9.500;2023-02-03T05:24:32;7.20;99.90
15239;DHT22;7722;53.274;9.500;2023-02-03T05:26:59;7.20;99.90
15239;DHT22;7722;53.274;9.500;2023-02-03T05:29:28;7.20;99.90
15239;DHT22;7722;53.274;9.500;2023-02-03T05:31:55;7.20;99.90
15239;DHT22;7722;53.274;9.500;2023-02-03T05:34:22;7.20;99.90
15239;DHT22;7722;53.274;9.500;2023-02-03T05:36:49;7.30;99.90
15239;DHT22;7722;53.274;9.500;2023-02-03T05:39:16;7.20;99.90
15239;DHT22;7722;53.274;9.500;2023-02-03T05:41:43;7.20;99.90
15239;DHT22;7722;53.274;9.500;2023-02-03T05:44:18;7.30;99.90
15239;DHT22;7722;53.274;9.500;2023-02-03T05:46:47;7.20;99.90
15239;DHT22;7722;53.274;9.500;2023-02-03T05:49:15;7.30;99.90
15239;DHT22;7722;53.274;9.500;2023-02-03T05:54:10;7.30;99.90
15239;DHT22;7722;53.274;9.500;2023-02-03T05:56:38;7.20;99.90
15239;DHT22;7722;53.274;9.500;2023-02-03T05:59:05;7.20;99.90
15239;DHT22;7722;53.274;9.500;2023-02-03T06:01:32;7.20;99.90
15239;DHT22;7722;53.274;9.500;2023-02-03T06:04:02;7.30;99.90
15239;DHT22;7722;53.274;9.500;2023-02-03T06:06:29;7.30;99.90
15239;DHT22;7722;53.274;9.500;2023-02-03T06:08:59;7.20;99.90
15239;DHT22;7722;53.274;9.500;2023-02-03T06:11:26;7.20;99.90
15239;DHT22;7722;53.274;9.500;2023-02-03T06:13:53;7.30;99.90
15239;DHT22;7722;53.274;9.500;2023-02-03T06:16:21;7.20;99.90
15239;DHT22;7722;53.274;9.500;2023-02-03T06:18:49;7.30;99.90
15239;DHT22;7722;53.274;9.500;2023-02-03T06:21:21;7.30;99.90
15239;DHT22;7722;53.274;9.500;2023-02-03T06:23:48;7.30;99.90
15239;DHT22;7722;53.274;9.500;2023-02-03T06:26:15;7.30;99.90
15239;DHT22;7722;53.274;9.500;2023-02-03T06:28:42;7.30;99.90
15239;DHT22;7722;53.274;9.500;2023-02-03T06:31:09;7.20;99.90
15239;DHT22;7722;53.274;9.500;2023-02-03T06:33:36;7.30;99.90
15239;DHT22;7722;53.274;9.500;2023-02-03T06:36:04;7.20;99.90
15239;DHT22;7722;53.274;9.500;2023-02-03T06:38:34;7.20;99.90
15239;DHT22;7722;53.274;9.500;2023-02-03T06:41:01;7.40;99.90
15239;DHT22;7722;53.274;9.500;2023-02-03T06:43:28;7.30;99.90
15239;DHT22;7722;53.274;9.500;2023-02-03T06:45:55;7.30;99.90
15239;DHT22;7722;53.274;9.500;2023-02-03T06:48:22;7.30;99.90
15239;DHT22;7722;53.274;9.500;2023-02-03T06:50:49;7.40;99.90
15239;DHT22;7722;53.274;9.500;2023-02-03T06:53:16;7.40;99.90
15239;DHT22;7722;53.274;9.500;2023-02-03T06:55:45;7.50;99.90
15239;DHT22;7722;53.274;9.500;2023-02-03T06:58:13;7.50;99.90
15239;DHT22;7722;53.274;9.500;2023-02-03T07:00:40;7.50;99.90
15239;DHT22;7722;53.274;9.500;2023-02-03T07:03:07;7.40;99.90
15239;DHT22;7722;53.274;9.500;2023-02-03T07:05:34;7.50;99.90
15239;DHT22;7722;53.274;9.500;2023-02-03T07:08:02;7.60;99.90
15239;DHT22;7722;53.274;9.500;2023-02-03T07:10:29;7.50;99.90
15239;DHT22;7722;53.274;9.500;2023-02-03T07:13:02;7.60;99.90
15239;DHT22;7722;53.274;9.500;2023-02-03T07:15:29;7.70;99.90
15239;DHT22;7722;53.274;9.500;2023-02-03T07:17:56;7.60;99.90
15239;DHT22;7722;53.274;9.500;2023-02-03T07:20:23;7.70;99.90
15239;DHT22;7722;53.274;9.500;2023-02-03T07:22:52;7.70;99.90
15239;DHT22;7722;53.274;9.500;2023-02-03T07:25:19;7.80;99.90
15239;DHT22;7722;53.274;9.500;2023-02-03T07:27:47;7.80;99.90
15239;DHT22;7722;53.274;9.500;2023-02-03T07:30:15;7.80;99.90
15239;DHT22;7722;53.274;9.500;2023-02-03T07:32:46;7.80;99.90
15239;DHT22;7722;53.274;9.500;2023-02-03T07:35:14;7.70;99.90
15239;DHT22;7722;53.274;9.500;2023-02-03T07:37:41;7.80;99.90
15239;DHT22;7722;53.274;9.500;2023-02-03T07:40:09;7.90;99.90
15239;DHT22;7722;53.274;9.500;2023-02-03T07:42:40;7.80;99.90
15239;DHT22;7722;53.274;9.500;2023-02-03T07:45:08;7.90;99.90
15239;DHT22;7722;53.274;9.500;2023-02-03T07:47:37;7.90;99.90
15239;DHT22;7722;53.274;9.500;2023-02-03T07:50:04;7.90;99.90
15239;DHT22;7722;53.274;9.500;2023-02-03T07:52:31;7.90;99.90
15239;DHT22;7722;53.274;9.500;2023-02-03T07:54:58;7.90;99.90
15239;DHT22;7722;53.274;9.500;2023-02-03T07:57:25;8.00;99.90
15239;DHT22;7722;53.274;9.500;2023-02-03T07:59:53;8.00;99.90
15239;DHT22;7722;53.274;9.500;2023-02-03T08:02:20;8.00;99.90
15239;DHT22;7722;53.274;9.500;2023-02-03T08:04:50;7.90;99.90
15239;DHT22;7722;53.274;9.500;2023-02-03T08:07:18;8.00;99.90
15239;DHT22;7722;53.274;9.500;2023-02-03T08:09:45;8.00;99.90
15239;DHT22;7722;53.274;9.500;2023-02-03T08:12:12;8.10;99.90
15239;DHT22;7722;53.274;9.500;2023-02-03T08:14:39;8.10;99.90
15239;DHT22;7722;53.274;9.500;2023-02-03T08:17:06;8.10;99.90
15239;DHT22;7722;53.274;9.500;2023-02-03T08:19:33;8.10;99.90
15239;DHT22;7722;53.274;9.500;2023-02-03T08:22:01;8.00;99.90
15239;DHT22;7722;53.274;9.500;2023-02-03T08:24:28;8.20;99.90
15239;DHT22;7722;53.274;9.500;2023-02-03T08:26:55;8.20;99.90
15239;DHT22;7722;53.274;9.500;2023-02-03T08:29:23;8.10;99.90
15239;DHT22;7722;53.274;9.500;2023-02-03T08:31:50;8.20;99.90
15239;DHT22;7722;53.274;9.500;2023-02-03T08:34:17;8.20;99.90
15239;DHT22;7722;53.274;9.500;2023-02-03T08:36:44;8.10;99.90
15239;DHT22;7722;53.274;9.500;2023-02-03T08:39:13;8.20;99.90
15239;DHT22;7722;53.274;9.500;2023-02-03T08:41:43;8.20;99.90
15239;DHT22;7722;53.274;9.500;2023-02-03T08:44:10;8.20;99.90
15239;DHT22;7722;53.274;9.500;2023-02-03T08:46:44;8.20;99.90
15239;DHT22;7722;53.274;9.500;2023-02-03T08:49:11;8.30;99.90
15239;DHT22;7722;53.274;9.500;2023-02-03T08:51:38;8.20;99.90
15239;DHT22;7722;53.274;9.500;2023-02-03T08:54:06;8.10;99.90
15239;DHT22;7722;53.274;9.500;2023-02-03T08:56:34;7.80;99.90
15239;DHT22;7722;53.274;9.500;2023-02-03T08:59:04;7.20;99.90
15239;DHT22;7722;53.274;9.500;2023-02-03T09:01:32;7.10;99.90
15239;DHT22;7722;53.274;9.500;2023-02-03T09:03:59;7.20;99.90
15239;DHT22;7722;53.274;9.500;2023-02-03T09:06:28;7.20;99.90
15239;DHT22;7722;53.274;9.500;2023-02-03T09:08:56;7.20;99.90
15239;DHT22;7722;53.274;9.500;2023-02-03T09:11:23;7.10;99.90
15239;DHT22;7722;53.274;9.500;2023-02-03T09:13:52;7.10;99.90
15239;DHT22;7722;53.274;9.500;2023-02-03T09:16:21;7.10;99.90
15239;DHT22;7722;53.274;9.500;2023-02-03T09:18:49;7.20;99.90
15239;DHT22;7722;53.274;9.500;2023-02-03T09:21:16;7.30;99.90
15239;DHT22;7722;53.274;9.500;2023-02-03T09:23:44;7.30;99.90
15239;DHT22;7722;53.274;9.500;2023-02-03T09:26:13;7.40;99.90
15239;DHT22;7722;53.274;9.500;2023-02-03T09:28:40;7.40;99.90
15239;DHT22;7722;53.274;9.500;2023-02-03T09:31:10;7.40;99.90
15239;DHT22;7722;53.274;9.500;2023-02-03T09:33:39;7.50;99.90
15239;DHT22;7722;53.274;9.500;2023-02-03T09:36:07;7.50;99.90
15239;DHT22;7722;53.274;9.500;2023-02-03T09:38:34;7.50;99.90
15239;DHT22;7722;53.274;9.500;2023-02-03T09:41:16;7.60;99.90
15239;DHT22;7722;53.274;9.500;2023-02-03T09:43:52;7.60;99.90
15239;DHT22;7722;53.274;9.500;2023-02-03T09:46:25;7.70;99.90
15239;DHT22;7722;53.274;9.500;2023-02-03T09:48:55;7.70;99.90
15239;DHT22;7722;53.274;9.500;2023-02-03T09:51:26;7.80;99.90
15239;DHT22;7722;53.274;9.500;2023-02-03T09:53:57;7.80;99.90
15239;DHT22;7722;53.274;9.500;2023-02-03T09:56:30;7.80;99.90
15239;DHT22;7722;53.274;9.500;2023-02-03T09:58:57;7.80;99.90
15239;DHT22;7722;53.274;9.500;2023-02-03T10:01:32;7.90;99.90
15239;DHT22;7722;53.274;9.500;2023-02-03T10:04:03;7.90;99.90
15239;DHT22;7722;53.274;9.500;2023-02-03T10:06:35;8.00;99.90
15239;DHT22;7722;53.274;9.500;2023-02-03T10:09:18;8.00;99.90
15239;DHT22;7722;53.274;9.500;2023-02-03T10:12:15;8.00;99.90
15239;DHT22;7722;53.274;9.500;2023-02-03T10:14:53;8.10;99.90
15239;DHT22;7722;53.274;9.500;2023-02-03T10:17:29;8.10;99.90
15239;DHT22;7722;53.274;9.500;2023-02-03T10:20:02;8.10;99.90
15239;DHT22;7722;53.274;9.500;2023-02-03T10:22:36;8.10;99.90
15239;DHT22;7722;53.274;9.500;2023-02-03T10:25:07;8.10;99.90
15239;DHT22;7722;53.274;9.500;2023-02-03T10:27:37;8.10;99.90
15239;DHT22;7722;53.274;9.500;2023-02-03T10:30:16;8.20;99.90
15239;DHT22;7722;53.274;9.500;2023-02-03T10:32:53;8.10;99.90
15239;DHT22;7722;53.274;9.500;2023-02-03T10:35:24;8.20;99.90
15239;DHT22;7722;53.274;9.500;2023-02-03T10:37:56;8.20;99.90
15239;DHT22;7722;53.274;9.500;2023-02-03T10:40:25;8.20;99.90
15239;DHT22;7722;53.274;9.500;2023-02-03T10:42:54;8.20;99.90
15239;DHT22;7722;53.274;9.500;2023-02-03T10:45:39;8.30;99.90
15239;DHT22;7722;53.274;9.500;2023-02-03T10:48:12;8.20;99.90
15239;DHT22;7722;53.274;9.500;2023-02-03T10:50:44;8.30;99.90
15239;DHT22;7722;53.274;9.500;2023-02-03T10:53:23;8.30;99.90
15239;DHT22;7722;53.274;9.500;2023-02-03T10:56:00;8.20;99.90
15239;DHT22;7722;53.274;9.500;2023-02-03T10:58:29;8.30;99.90
15239;DHT22;7722;53.274;9.500;2023-02-03T11:01:04;8.40;99.90
15239;DHT22;7722;53.274;9.500;2023-02-03T11:03:43;8.40;99.90
15239;DHT22;7722;53.274;9.500;2023-02-03T11:06:11;8.40;99.90
15239;DHT22;7722;53.274;9.500;2023-02-03T11:08:40;8.40;99.90
15239;DHT22;7722;53.274;9.500;2023-02-03T11:11:13;8.40;99.90
15239;DHT22;7722;53.274;9.500;2023-02-03T11:13:40;8.40;99.90
15239;DHT22;7722;53.274;9.500;2023-02-03T11:16:12;8.50;99.90
15239;DHT22;7722;53.274;9.500;2023-02-03T11:18:51;8.50;99.90
15239;DHT22;7722;53.274;9.500;2023-02-03T11:21:21;8.40;99.90
15239;DHT22;7722;53.274;9.500;2023-02-03T11:23:52;8.40;99.90
15239;DHT22;7722;53.274;9.500;2023-02-03T11:26:23;8.40;99.90
15239;DHT22;7722;53.274;9.500;2023-02-03T11:28:53;8.40;99.90
15239;DHT22;7722;53.274;9.500;2023-02-03T11:31:24;8.40;99.90
15239;DHT22;7722;53.274;9.500;2023-02-03T11:33:57;8.40;99.90
15239;DHT22;7722;53.274;9.500;2023-02-03T11:36:26;8.40;99.90
15239;DHT22;7722;53.274;9.500;2023-02-03T11:39:14;8.50;99.90
15239;DHT22;7722;53.274;9.500;2023-02-03T11:41:43;8.40;99.90
15239;DHT22;7722;53.274;9.500;2023-02-03T11:44:11;8.40;99.90
15239;DHT22;7722;53.274;9.500;2023-02-03T11:46:41;8.40;99.90
15239;DHT22;7722;53.274;9.500;2023-02-03T11:52:04;8.40;99.90
15239;DHT22;7722;53.274;9.500;2023-02-03T11:54:42;8.40;99.90
15239;DHT22;7722;53.274;9.500;2023-02-03T11:57:25;8.50;99.90
15239;DHT22;7722;53.274;9.500;2023-02-03T12:00:03;8.50;99.90
15239;DHT22;7722;53.274;9.500;2023-02-03T12:03:05;8.40;99.90
15239;DHT22;7722;53.274;9.500;2023-02-03T12:05:59;8.50;99.90
15239;DHT22;7722;53.274;9.500;2023-02-03T12:08:40;8.50;99.90
15239;DHT22;7722;53.274;9.500;2023-02-03T12:11:21;8.50;99.90
15239;DHT22;7722;53.274;9.500;2023-02-03T12:13:59;8.50;99.90
15239;DHT22;7722;53.274;9.500;2023-02-03T12:19:32;8.40;99.90
15239;DHT22;7722;53.274;9.500;2023-02-03T12:22:14;8.30;99.90
15239;DHT22;7722;53.274;9.500;2023-02-03T12:24:50;8.40;99.90
15239;DHT22;7722;53.274;9.500;2023-02-03T12:27:28;8.40;99.90
15239;DHT22;7722;53.274;9.500;2023-02-03T12:30:02;8.30;99.90
15239;DHT22;7722;53.274;9.500;2023-02-03T12:32:35;8.40;99.90
15239;DHT22;7722;53.274;9.500;2023-02-03T12:35:12;8.40;99.90
15239;DHT22;7722;53.274;9.500;2023-02-03T12:37:48;8.30;99.90
15239;DHT22;7722;53.274;9.500;2023-02-03T12:40:19;8.40;99.90
15239;DHT22;7722;53.274;9.500;2023-02-03T12:42:51;8.40;99.90
15239;DHT22;7722;53.274;9.500;2023-02-03T12:45:22;8.30;99.90
15239;DHT22;7722;53.274;9.500;2023-02-03T12:47:54;8.30;99.90
15239;DHT22;7722;53.274;9.500;2023-02-03T12:50:28;8.30;99.90
15239;DHT22;7722;53.274;9.500;2023-02-03T12:53:00;8.30;99.90
15239;DHT22;7722;53.274;9.500;2023-02-03T12:55:34;8.30;99.90
15239;DHT22;7722;53.274;9.500;2023-02-03T12:58:05;8.30;99.90
15239;DHT22;7722;53.274;9.500;2023-02-03T13:00:38;8.30;99.90
15239;DHT22;7722;53.274;9.500;2023-02-03T13:03:17;8.20;99.90
15239;DHT22;7722;53.274;9.500;2023-02-03T13:05:49;8.20;99.90
15239;DHT22;7722;53.274;9.500;2023-02-03T13:08:22;8.20;99.90
15239;DHT22;7722;53.274;9.500;2023-02-03T13:10:55;8.20;99.90
15239;DHT22;7722;53.274;9.500;2023-02-03T13:13:34;8.10;99.90
15239;DHT22;7722;53.274;9.500;2023-02-03T13:16:05;8.10;99.90
15239;DHT22;7722;53.274;9.500;2023-02-03T13:18:37;8.20;99.90
15239;DHT22;7722;53.274;9.500;2023-02-03T13:21:09;8.20;99.90
15239;DHT22;7722;53.274;9.500;2023-02-03T13:23:44;8.20;99.90
15239;DHT22;7722;53.274;9.500;2023-02-03T13:26:35;8.10;99.90
15239;DHT22;7722;53.274;9.500;2023-02-03T13:29:19;8.20;99.90
15239;DHT22;7722;53.274;9.500;2023-02-03T13:32:01;8.20;99.90
15239;DHT22;7722;53.274;9.500;2023-02-03T13:34:40;8.20;99.90
15239;DHT22;7722;53.274;9.500;2023-02-03T13:37:26;8.10;99.90
15239;DHT22;7722;53.274;9.500;2023-02-03T13:40:14;8.00;99.90
15239;DHT22;7722;53.274;9.500;2023-02-03T13:42:46;8.00;99.90
15239;DHT22;7722;53.274;9.500;2023-02-03T13:45:20;7.90;99.90
15239;DHT22;7722;53.274;9.500;2023-02-03T13:47:50;7.90;99.90
15239;DHT22;7722;53.274;9.500;2023-02-03T13:50:21;7.90;99.90
15239;DHT22;7722;53.274;9.500;2023-02-03T13:52:55;8.00;99.90
15239;DHT22;7722;53.274;9.500;2023-02-03T13:55:28;7.90;99.90
15239;DHT22;7722;53.274;9.500;2023-02-03T13:57:56;7.90;99.90
15239;DHT22;7722;53.274;9.500;2023-02-03T14:00:58;7.90;99.90
15239;DHT22;7722;53.274;9.500;2023-02-03T14:03:44;7.90;99.90
15239;DHT22;7722;53.274;9.500;2023-02-03T14:12:54;7.70;99.90
15239;DHT22;7722;53.274;9.500;2023-02-03T14:15:30;7.70;99.90
15239;DHT22;7722;53.274;9.500;2023-02-03T14:21:14;7.70;99.90
15239;DHT22;7722;53.274;9.500;2023-02-03T14:23:46;7.70;99.90
15239;DHT22;7722;53.274;9.500;2023-02-03T14:26:21;7.70;99.90
15239;DHT22;7722;53.274;9.500;2023-02-03T14:28:51;7.70;99.90
15239;DHT22;7722;53.274;9.500;2023-02-03T14:31:19;7.60;99.90
15239;DHT22;7722;53.274;9.500;2023-02-03T14:34:08;7.60;99.90
15239;DHT22;7722;53.274;9.500;2023-02-03T14:36:47;7.60;99.90
15239;DHT22;7722;53.274;9.500;2023-02-03T14:39:31;7.60;99.90
15239;DHT22;7722;53.274;9.500;2023-02-03T14:42:10;7.50;99.90
15239;DHT22;7722;53.274;9.500;2023-02-03T14:44:54;7.50;99.90
15239;DHT22;7722;53.274;9.500;2023-02-03T14:47:39;7.50;99.90
15239;DHT22;7722;53.274;9.500;2023-02-03T14:50:23;7.50;99.90
15239;DHT22;7722;53.274;9.500;2023-02-03T14:53:07;7.50;99.90
15239;DHT22;7722;53.274;9.500;2023-02-03T14:55:46;7.50;99.90
15239;DHT22;7722;53.274;9.500;2023-02-03T14:58:24;7.50;99.90
15239;DHT22;7722;53.274;9.500;2023-02-03T15:00:54;7.50;99.90
15239;DHT22;7722;53.274;9.500;2023-02-03T15:03:26;7.50;99.90
15239;DHT22;7722;53.274;9.500;2023-02-03T15:05:58;7.50;99.90
15239;DHT22;7722;53.274;9.500;2023-02-03T15:08:35;7.40;99.90
15239;DHT22;7722;53.274;9.500;2023-02-03T15:11:23;7.40;99.90
15239;DHT22;7722;53.274;9.500;2023-02-03T15:13:52;7.40;99.90
15239;DHT22;7722;53.274;9.500;2023-02-03T15:16:21;7.40;99.90
15239;DHT22;7722;53.274;9.500;2023-02-03T15:18:57;7.40;99.90
15239;DHT22;7722;53.274;9.500;2023-02-03T15:21:24;7.40;99.90
15239;DHT22;7722;53.274;9.500;2023-02-03T15:23:52;7.40;99.90
15239;DHT22;7722;53.274;9.500;2023-02-03T15:26:22;7.40;99.90
15239;DHT22;7722;53.274;9.500;2023-02-03T15:28:56;7.40;99.90
15239;DHT22;7722;53.274;9.500;2023-02-03T15:31:30;7.40;99.90
15239;DHT22;7722;53.274;9.500;2023-02-03T15:34:03;7.40;99.90
15239;DHT22;7722;53.274;9.500;2023-02-03T15:36:38;7.40;99.90
15239;DHT22;7722;53.274;9.500;2023-02-03T15:39:17;7.40;99.90
15239;DHT22;7722;53.274;9.500;2023-02-03T15:41:47;7.40;99.90
15239;DHT22;7722;53.274;9.500;2023-02-03T15:44:24;7.40;99.90
15239;DHT22;7722;53.274;9.500;2023-02-03T15:46:54;7.30;99.90
15239;DHT22;7722;53.274;9.500;2023-02-03T15:49:24;7.30;99.90
15239;DHT22;7722;53.274;9.500;2023-02-03T15:51:55;7.30;99.90
15239;DHT22;7722;53.274;9.500;2023-02-03T15:54:26;7.30;99.90
15239;DHT22;7722;53.274;9.500;2023-02-03T15:56:57;7.20;99.90
15239;DHT22;7722;53.274;9.500;2023-02-03T15:59:29;7.20;99.90
15239;DHT22;7722;53.274;9.500;2023-02-03T16:01:59;7.10;99.90
15239;DHT22;7722;53.274;9.500;2023-02-03T16:04:29;7.10;99.90
15239;DHT22;7722;53.274;9.500;2023-02-03T16:06:56;7.00;99.90
15239;DHT22;7722;53.274;9.500;2023-02-03T16:09:29;6.90;99.90
15239;DHT22;7722;53.274;9.500;2023-02-03T16:12:16;6.90;99.90
15239;DHT22;7722;53.274;9.500;2023-02-03T16:14:44;6.90;99.90
15239;DHT22;7722;53.274;9.500;2023-02-03T16:17:25;6.90;99.90
15239;DHT22;7722;53.274;9.500;2023-02-03T16:20:22;6.90;99.90
15239;DHT22;7722;53.274;9.500;2023-02-03T16:23:04;7.00;99.90
15239;DHT22;7722;53.274;9.500;2023-02-03T16:25:34;7.00;99.90
15239;DHT22;7722;53.274;9.500;2023-02-03T16:28:03;7.00;99.90
15239;DHT22;7722;53.274;9.500;2023-02-03T16:30:53;7.00;99.90
15239;DHT22;7722;53.274;9.500;2023-02-03T16:33:43;7.10;99.90
15239;DHT22;7722;53.274;9.500;2023-02-03T16:36:28;7.10;99.90
15239;DHT22;7722;53.274;9.500;2023-02-03T16:39:13;7.10;99.90
15239;DHT22;7722;53.274;9.500;2023-02-03T16:41:58;7.10;99.90
15239;DHT22;7722;53.274;9.500;2023-02-03T16:44:43;7.10;99.90
15239;DHT22;7722;53.274;9.500;2023-02-03T16:47:29;7.10;99.90
15239;DHT22;7722;53.274;9.500;2023-02-03T16:50:18;7.10;99.90
15239;DHT22;7722;53.274;9.500;2023-02-03T16:53:03;7.10;99.90
15239;DHT22;7722;53.274;9.500;2023-02-03T16:55:30;7.10;99.90
15239;DHT22;7722;53.274;9.500;2023-02-03T16:57:57;7.10;99.90